PWSweather.com
Personal Weather Stations
Station Observations
BZA01
Southern Palatinate, Bad BergzabernDE 76887

Southern PalatinateBad BergzabernDE 76887

Lat: 49.096, Lon: 8

Elevation: 640

Station Type: Davis VP2+

Latest ConditionsUpdated 7:52:37 AM GMT+01:01 Sunday, Jul 23, 2017
Currently Today's Max Today's Min Today's Average
Temperature 64.8°F18.2°C 70.0°F21.1°C 61.9°F16.6°C 64.8°F18.2°C
Dew Point 58.1°F14.5°C 62.1°F16.7°C 57.7°F14.3°C 59.8°F15.4°C
Winds 2.9 mph WSW4.7 kmh WSW 6.9 mph WSW11.1 kmh WSW - 2.5 mph 4.0 kmh
Wind Gusts 2.0 mph3.2 kmh 12.1 mph19.5 kmh - -
Humidity 79% 92% 75% 84%
Pressure 29.99 in1015.6 mb 29.99 in1015.6 mb 29.89 in1012.2 mb -
Precipitation - 0.03 in0.8 mm - -
Hour Temp Dew Point Humidity Winds Wind Gusts Pressure Precip Precip Rate Daily Precip Total
07:52 AM 64.8°F18.2°C 58.1°F14.5°C 79% 2.9 mph WSW4.7 kmh WSW 2.0 mph3.2 kmh 29.99 in1015.6 mb - 0.00 in0.0 mm 0.03 in0.8 mm
07:47 AM 64.8°F18.2°C 58.1°F14.5°C 79% 2.9 mph SW4.7 kmh SW 2.0 mph3.2 kmh 29.99 in1015.6 mb - 0.00 in0.0 mm 0.03 in0.8 mm
07:42 AM 64.6°F18.1°C 58.3°F14.6°C 80% 2.0 mph WSW3.2 kmh WSW 6.0 mph9.7 kmh 29.99 in1015.6 mb - 0.00 in0.0 mm 0.03 in0.8 mm
07:37 AM 64.6°F18.1°C 58.3°F14.6°C 80% 2.9 mph WSW4.7 kmh WSW 2.0 mph3.2 kmh 29.99 in1015.6 mb - 0.00 in0.0 mm 0.03 in0.8 mm
07:32 AM 64.4°F18.0°C 58.1°F14.5°C 80% 2.9 mph SW4.7 kmh SW 2.0 mph3.2 kmh 29.99 in1015.6 mb - 0.00 in0.0 mm 0.03 in0.8 mm
07:27 AM 64.2°F17.9°C 57.9°F14.4°C 80% 2.9 mph SW4.7 kmh SW 2.0 mph3.2 kmh 29.99 in1015.6 mb - 0.00 in0.0 mm 0.03 in0.8 mm
07:22 AM 64.2°F17.9°C 58.3°F14.6°C 81% 2.9 mph W4.7 kmh W 2.0 mph3.2 kmh 29.99 in1015.6 mb - 0.00 in0.0 mm 0.03 in0.8 mm
07:17 AM 64.2°F17.9°C 58.3°F14.6°C 81% 2.0 mph WSW3.2 kmh WSW 2.9 mph4.7 kmh 29.98 in1015.2 mb - 0.00 in0.0 mm 0.03 in0.8 mm
07:12 AM 64.2°F17.9°C 58.3°F14.6°C 81% 2.0 mph WSW3.2 kmh WSW 0.9 mph1.4 kmh 29.98 in1015.2 mb - 0.00 in0.0 mm 0.03 in0.8 mm
07:07 AM 64.2°F17.9°C 58.3°F14.6°C 81% 2.0 mph SW3.2 kmh SW 2.0 mph3.2 kmh 29.99 in1015.6 mb - 0.00 in0.0 mm 0.03 in0.8 mm
07:02 AM 64.0°F17.8°C 57.7°F14.3°C 80% 2.9 mph WSW4.7 kmh WSW 2.0 mph3.2 kmh 29.99 in1015.6 mb - 0.00 in0.0 mm 0.03 in0.8 mm
06:57 AM 64.0°F17.8°C 57.7°F14.3°C 80% 4.0 mph W6.4 kmh W 2.9 mph4.7 kmh 29.98 in1015.2 mb - 0.00 in0.0 mm 0.03 in0.8 mm
06:52 AM 64.0°F17.8°C 58.1°F14.5°C 81% 4.0 mph WSW6.4 kmh WSW 2.9 mph4.7 kmh 29.97 in1014.9 mb - 0.00 in0.0 mm 0.03 in0.8 mm
06:47 AM 64.0°F17.8°C 57.7°F14.3°C 80% 4.0 mph SW6.4 kmh SW 4.0 mph6.4 kmh 29.97 in1014.9 mb - 0.00 in0.0 mm 0.03 in0.8 mm
06:42 AM 64.0°F17.8°C 58.1°F14.5°C 81% 4.0 mph WSW6.4 kmh WSW 0.9 mph1.4 kmh 29.97 in1014.9 mb - 0.00 in0.0 mm 0.03 in0.8 mm
06:37 AM 64.0°F17.8°C 58.1°F14.5°C 81% 4.9 mph W7.9 kmh W 4.0 mph6.4 kmh 29.97 in1014.9 mb - 0.00 in0.0 mm 0.03 in0.8 mm
06:32 AM 64.0°F17.8°C 57.7°F14.3°C 80% 4.9 mph W7.9 kmh W 4.0 mph6.4 kmh 29.97 in1014.9 mb - 0.00 in0.0 mm 0.02 in0.5 mm
06:27 AM 64.0°F17.8°C 58.1°F14.5°C 81% 4.0 mph WSW6.4 kmh WSW 8.1 mph13.0 kmh 29.96 in1014.6 mb - 0.00 in0.0 mm 0.02 in0.5 mm
06:22 AM 63.9°F17.7°C 58.3°F14.6°C 82% 4.0 mph NW6.4 kmh NW 2.9 mph4.7 kmh 29.97 in1014.9 mb - 0.00 in0.0 mm 0.02 in0.5 mm
06:17 AM 63.5°F17.5°C 58.6°F14.8°C 84% 2.9 mph W4.7 kmh W 6.0 mph9.7 kmh 29.96 in1014.6 mb - 0.00 in0.0 mm 0.02 in0.5 mm
06:12 AM 63.1°F17.3°C 58.8°F14.9°C 86% 2.0 mph W3.2 kmh W 0.9 mph1.4 kmh 29.96 in1014.6 mb - 0.00 in0.0 mm 0.02 in0.5 mm
06:07 AM 62.8°F17.1°C 58.8°F14.9°C 87% 2.0 mph W3.2 kmh W 0.9 mph1.4 kmh 29.96 in1014.6 mb - 0.00 in0.0 mm 0.02 in0.5 mm
06:02 AM 62.2°F16.8°C 58.6°F14.8°C 88% 2.0 mph WSW3.2 kmh WSW 0.9 mph1.4 kmh 29.96 in1014.6 mb - 0.00 in0.0 mm 0.02 in0.5 mm
05:57 AM 62.1°F16.7°C 58.8°F14.9°C 89% 2.0 mph SSW3.2 kmh SSW 2.0 mph3.2 kmh 29.96 in1014.6 mb - 0.00 in0.0 mm 0.02 in0.5 mm
05:52 AM 61.9°F16.6°C 58.6°F14.8°C 89% 2.0 mph WSW3.2 kmh WSW -- 29.96 in1014.6 mb - 0.00 in0.0 mm 0.02 in0.5 mm
05:47 AM 62.1°F16.7°C 59.2°F15.1°C 90% 2.0 mph SW3.2 kmh SW -- 29.96 in1014.6 mb - 0.00 in0.0 mm 0.02 in0.5 mm
05:42 AM 62.1°F16.7°C 59.4°F15.2°C 91% 2.0 mph WSW3.2 kmh WSW -- 29.96 in1014.6 mb - 0.00 in0.0 mm 0.02 in0.5 mm
05:37 AM 62.1°F16.7°C 59.7°F15.4°C 92% 2.0 mph W3.2 kmh W -- 29.96 in1014.6 mb - 0.00 in0.0 mm 0.02 in0.5 mm
05:32 AM 62.2°F16.8°C 59.9°F15.5°C 92% 0.9 mph W1.4 kmh W 2.0 mph3.2 kmh 29.96 in1014.6 mb - 0.00 in0.0 mm 0.02 in0.5 mm
05:27 AM 62.2°F16.8°C 59.9°F15.5°C 92% Calm Calm 2.0 mph3.2 kmh 29.96 in1014.6 mb - 0.00 in0.0 mm 0.02 in0.5 mm
05:22 AM 62.4°F16.9°C 60.1°F15.6°C 92% 0.9 mph WSW1.4 kmh WSW 0.9 mph1.4 kmh 29.96 in1014.6 mb - 0.00 in0.0 mm 0.02 in0.5 mm
05:17 AM 62.4°F16.9°C 60.1°F15.6°C 92% 0.9 mph WSW1.4 kmh WSW 0.9 mph1.4 kmh 29.96 in1014.6 mb - 0.00 in0.0 mm 0.02 in0.5 mm
05:12 AM 62.4°F16.9°C 60.1°F15.6°C 92% 2.0 mph SW3.2 kmh SW 0.9 mph1.4 kmh 29.95 in1014.2 mb - 0.00 in0.0 mm 0.02 in0.5 mm
05:07 AM 62.8°F17.1°C 60.4°F15.8°C 92% 2.0 mph SW3.2 kmh SW 2.0 mph3.2 kmh 29.95 in1014.2 mb - 0.00 in0.0 mm 0.02 in0.5 mm
05:02 AM 62.8°F17.1°C 60.4°F15.8°C 92% 0.9 mph WNW1.4 kmh WNW 0.9 mph1.4 kmh 29.95 in1014.2 mb - 0.00 in0.0 mm 0.02 in0.5 mm
04:57 AM 63.0°F17.2°C 60.6°F15.9°C 92% 2.0 mph WSW3.2 kmh WSW 0.9 mph1.4 kmh 29.95 in1014.2 mb - 0.00 in0.0 mm 0.02 in0.5 mm
04:52 AM 63.0°F17.2°C 60.6°F15.9°C 92% 2.0 mph WSW3.2 kmh WSW 2.0 mph3.2 kmh 29.95 in1014.2 mb - 0.00 in0.0 mm 0.02 in0.5 mm
04:47 AM 63.0°F17.2°C 60.6°F15.9°C 92% 2.0 mph SW3.2 kmh SW 0.9 mph1.4 kmh 29.95 in1014.2 mb - 0.00 in0.0 mm 0.02 in0.5 mm
04:42 AM 63.1°F17.3°C 60.8°F16.0°C 92% 2.0 mph SW3.2 kmh SW 0.9 mph1.4 kmh 29.95 in1014.2 mb - 0.00 in0.0 mm 0.02 in0.5 mm
04:37 AM 63.1°F17.3°C 60.8°F16.0°C 92% 2.9 mph SSW4.7 kmh SSW 0.9 mph1.4 kmh 29.94 in1013.9 mb - 0.00 in0.0 mm 0.02 in0.5 mm
04:32 AM 63.1°F17.3°C 60.8°F16.0°C 92% 2.0 mph SSW3.2 kmh SSW 2.0 mph3.2 kmh 29.94 in1013.9 mb - 0.00 in0.0 mm 0.02 in0.5 mm
04:27 AM 63.3°F17.4°C 61.0°F16.1°C 92% 0.9 mph SSW1.4 kmh SSW 2.9 mph4.7 kmh 29.94 in1013.9 mb - 0.00 in0.0 mm 0.02 in0.5 mm
04:22 AM 63.3°F17.4°C 61.0°F16.1°C 92% 0.9 mph WSW1.4 kmh WSW -- 29.94 in1013.9 mb - 0.00 in0.0 mm 0.02 in0.5 mm
04:17 AM 63.3°F17.4°C 61.0°F16.1°C 92% 0.9 mph WSW1.4 kmh WSW 0.9 mph1.4 kmh 29.94 in1013.9 mb - 0.00 in0.0 mm 0.02 in0.5 mm
04:12 AM 63.3°F17.4°C 61.0°F16.1°C 92% 0.9 mph WSW1.4 kmh WSW 2.0 mph3.2 kmh 29.94 in1013.9 mb - 0.00 in0.0 mm 0.02 in0.5 mm
04:07 AM 63.3°F17.4°C 61.0°F16.1°C 92% 2.0 mph WSW3.2 kmh WSW 0.9 mph1.4 kmh 29.94 in1013.9 mb - 0.00 in0.0 mm 0.02 in0.5 mm
04:02 AM 63.3°F17.4°C 60.6°F15.9°C 91% 2.0 mph SW3.2 kmh SW 2.0 mph3.2 kmh 29.94 in1013.9 mb - 0.00 in0.0 mm 0.02 in0.5 mm
03:57 AM 63.3°F17.4°C 60.6°F15.9°C 91% 2.0 mph SW3.2 kmh SW 0.9 mph1.4 kmh 29.94 in1013.9 mb - 0.00 in0.0 mm 0.02 in0.5 mm
03:52 AM 63.5°F17.5°C 60.8°F16.0°C 91% 2.0 mph SW3.2 kmh SW 4.0 mph6.4 kmh 29.94 in1013.9 mb - 0.00 in0.0 mm 0.02 in0.5 mm
03:47 AM 63.7°F17.6°C 61.0°F16.1°C 91% 2.0 mph W3.2 kmh W 2.0 mph3.2 kmh 29.94 in1013.9 mb - 0.00 in0.0 mm 0.02 in0.5 mm
03:42 AM 63.7°F17.6°C 61.0°F16.1°C 91% 2.0 mph SW3.2 kmh SW 0.9 mph1.4 kmh 29.94 in1013.9 mb - 0.00 in0.0 mm 0.02 in0.5 mm
03:37 AM 63.9°F17.7°C 60.8°F16.0°C 90% 2.0 mph S3.2 kmh S 2.0 mph3.2 kmh 29.94 in1013.9 mb - 0.00 in0.0 mm 0.02 in0.5 mm
03:32 AM 63.9°F17.7°C 60.8°F16.0°C 90% 2.0 mph S3.2 kmh S 2.0 mph3.2 kmh 29.94 in1013.9 mb - 0.00 in0.0 mm 0.02 in0.5 mm
03:27 AM 63.9°F17.7°C 60.8°F16.0°C 90% 2.0 mph SW3.2 kmh SW 0.9 mph1.4 kmh 29.94 in1013.9 mb - 0.00 in0.0 mm 0.02 in0.5 mm
03:22 AM 63.9°F17.7°C 60.8°F16.0°C 90% 2.9 mph WSW4.7 kmh WSW -- 29.94 in1013.9 mb - 0.00 in0.0 mm 0.02 in0.5 mm
03:17 AM 64.0°F17.8°C 61.0°F16.1°C 90% 2.9 mph WSW4.7 kmh WSW -- 29.94 in1013.9 mb - 0.00 in0.0 mm 0.02 in0.5 mm
03:12 AM 64.0°F17.8°C 60.8°F16.0°C 89% 2.0 mph SW3.2 kmh SW 2.9 mph4.7 kmh 29.93 in1013.5 mb - 0.00 in0.0 mm 0.02 in0.5 mm
03:07 AM 64.0°F17.8°C 60.8°F16.0°C 89% 0.9 mph W1.4 kmh W 2.0 mph3.2 kmh 29.93 in1013.5 mb - 0.00 in0.0 mm 0.02 in0.5 mm
03:02 AM 64.0°F17.8°C 60.4°F15.8°C 88% 0.9 mph SW1.4 kmh SW 2.9 mph4.7 kmh 29.93 in1013.5 mb - 0.00 in0.0 mm 0.02 in0.5 mm
02:57 AM 64.2°F17.9°C 60.3°F15.7°C 87% 0.9 mph WSW1.4 kmh WSW 2.0 mph3.2 kmh 29.93 in1013.5 mb - 0.00 in0.0 mm 0.02 in0.5 mm
02:52 AM 64.2°F17.9°C 59.9°F15.5°C 86% 0.9 mph WSW1.4 kmh WSW -- 29.92 in1013.2 mb - 0.03 in0.8 mm 0.02 in0.5 mm
02:47 AM 64.4°F18.0°C 60.1°F15.6°C 86% 0.9 mph WSW1.4 kmh WSW -- 29.92 in1013.2 mb - 0.04 in1.0 mm 0.02 in0.5 mm
02:42 AM 64.6°F18.1°C 59.9°F15.5°C 85% 0.9 mph SSW1.4 kmh SSW 2.9 mph4.7 kmh 29.92 in1013.2 mb - 0.04 in1.0 mm 0.02 in0.5 mm
02:37 AM 64.9°F18.3°C 60.3°F15.7°C 85% 2.0 mph NNW3.2 kmh NNW -- 29.92 in1013.2 mb - 0.04 in1.0 mm 0.02 in0.5 mm
02:32 AM 65.1°F18.4°C 59.9°F15.5°C 83% 2.0 mph W3.2 kmh W -- 29.92 in1013.2 mb - 0.06 in1.5 mm 0.02 in0.5 mm
02:27 AM 65.5°F18.6°C 59.9°F15.5°C 82% 2.9 mph W4.7 kmh W 2.0 mph3.2 kmh 29.92 in1013.2 mb - 0.09 in2.3 mm 0.01 in0.3 mm
02:22 AM 65.8°F18.8°C 59.9°F15.5°C 81% 2.0 mph SW3.2 kmh SW 2.0 mph3.2 kmh 29.93 in1013.5 mb - 0.00 in0.0 mm 0.01 in0.3 mm
02:17 AM 65.7°F18.7°C 59.4°F15.2°C 80% 0.9 mph SW1.4 kmh SW 0.9 mph1.4 kmh 29.93 in1013.5 mb - 0.00 in0.0 mm 0.00 in0.0 mm
02:12 AM 65.7°F18.7°C 59.4°F15.2°C 80% 0.9 mph SW1.4 kmh SW -- 29.93 in1013.5 mb - 0.00 in0.0 mm 0.00 in0.0 mm
02:07 AM 65.7°F18.7°C 59.4°F15.2°C 80% 0.9 mph WSW1.4 kmh WSW 0.9 mph1.4 kmh 29.92 in1013.2 mb - 0.00 in0.0 mm 0.00 in0.0 mm
02:02 AM 65.8°F18.8°C 59.5°F15.3°C 80% Calm Calm 0.9 mph1.4 kmh 29.92 in1013.2 mb - 0.00 in0.0 mm 0.00 in0.0 mm
01:57 AM 66.0°F18.9°C 59.7°F15.4°C 80% Calm Calm 0.9 mph1.4 kmh 29.91 in1012.9 mb - 0.00 in0.0 mm 0.00 in0.0 mm
01:52 AM 66.4°F19.1°C 59.7°F15.4°C 79% Calm Calm -- 29.91 in1012.9 mb - 0.00 in0.0 mm 0.00 in0.0 mm
01:47 AM 66.7°F19.3°C 59.7°F15.4°C 78% 0.9 mph SW1.4 kmh SW -- 29.92 in1013.2 mb - 0.00 in0.0 mm 0.00 in0.0 mm
01:42 AM 66.9°F19.4°C 59.5°F15.3°C 77% 0.9 mph SW1.4 kmh SW 0.9 mph1.4 kmh 29.91 in1012.9 mb - 0.00 in0.0 mm 0.00 in0.0 mm
01:37 AM 67.3°F19.6°C 59.9°F15.5°C 77% 2.0 mph SW3.2 kmh SW -- 29.91 in1012.9 mb - 0.00 in0.0 mm 0.00 in0.0 mm
01:32 AM 67.3°F19.6°C 59.5°F15.3°C 76% 2.0 mph SW3.2 kmh SW 2.9 mph4.7 kmh 29.91 in1012.9 mb - 0.00 in0.0 mm 0.00 in0.0 mm
01:27 AM 67.3°F19.6°C 59.5°F15.3°C 76% 2.9 mph WNW4.7 kmh WNW 4.0 mph6.4 kmh 29.91 in1012.9 mb - 0.00 in0.0 mm 0.00 in0.0 mm
01:22 AM 67.5°F19.7°C 59.5°F15.3°C 76% 4.0 mph WNW6.4 kmh WNW 2.0 mph3.2 kmh 29.91 in1012.9 mb - 0.00 in0.0 mm 0.00 in0.0 mm
01:17 AM 67.6°F19.8°C 59.7°F15.4°C 76% 4.9 mph W7.9 kmh W 6.0 mph9.7 kmh 29.91 in1012.9 mb - 0.00 in0.0 mm 0.00 in0.0 mm
01:12 AM 67.6°F19.8°C 59.7°F15.4°C 76% 4.0 mph SW6.4 kmh SW 8.9 mph14.3 kmh 29.91 in1012.9 mb - 0.00 in0.0 mm 0.00 in0.0 mm
01:07 AM 67.8°F19.9°C 59.9°F15.5°C 76% 4.0 mph W6.4 kmh W 6.9 mph11.1 kmh 29.91 in1012.9 mb - 0.00 in0.0 mm 0.00 in0.0 mm
01:02 AM 68.0°F20.0°C 60.1°F15.6°C 76% 4.9 mph WNW7.9 kmh WNW 2.9 mph4.7 kmh 29.91 in1012.9 mb - 0.00 in0.0 mm 0.00 in0.0 mm
12:57 AM 68.2°F20.1°C 60.3°F15.7°C 76% 4.0 mph W6.4 kmh W 6.9 mph11.1 kmh 29.91 in1012.9 mb - 0.00 in0.0 mm 0.00 in0.0 mm
12:52 AM 68.2°F20.1°C 60.3°F15.7°C 76% 4.0 mph WSW6.4 kmh WSW 6.0 mph9.7 kmh 29.90 in1012.5 mb - 0.00 in0.0 mm 0.00 in0.0 mm
12:47 AM 68.2°F20.1°C 60.6°F15.9°C 77% 4.0 mph W6.4 kmh W -- 29.90 in1012.5 mb - 0.00 in0.0 mm 0.00 in0.0 mm
12:42 AM 68.2°F20.1°C 60.6°F15.9°C 77% 4.9 mph W7.9 kmh W 2.9 mph4.7 kmh 29.90 in1012.5 mb - 0.00 in0.0 mm 0.00 in0.0 mm
12:37 AM 68.4°F20.2°C 60.8°F16.0°C 77% 4.9 mph W7.9 kmh W 6.9 mph11.1 kmh 29.90 in1012.5 mb - 0.00 in0.0 mm 0.00 in0.0 mm
12:32 AM 68.7°F20.4°C 60.8°F16.0°C 76% 6.0 mph SW9.7 kmh SW 4.0 mph6.4 kmh 29.90 in1012.5 mb - 0.00 in0.0 mm 0.00 in0.0 mm
12:27 AM 69.1°F20.6°C 61.2°F16.2°C 76% 6.0 mph SW9.7 kmh SW 8.1 mph13.0 kmh 29.89 in1012.2 mb - 0.00 in0.0 mm 0.00 in0.0 mm
12:22 AM 69.4°F20.8°C 61.5°F16.4°C 76% 6.0 mph W9.7 kmh W 8.1 mph13.0 kmh 29.90 in1012.5 mb - 0.00 in0.0 mm 0.00 in0.0 mm
12:17 AM 69.8°F21.0°C 61.5°F16.4°C 75% 6.9 mph WSW11.1 kmh WSW 8.9 mph14.3 kmh 29.90 in1012.5 mb - 0.00 in0.0 mm 0.00 in0.0 mm
12:12 AM 70.0°F21.1°C 62.1°F16.7°C 76% 6.0 mph WSW9.7 kmh WSW 12.1 mph19.5 kmh 29.89 in1012.2 mb - 0.00 in0.0 mm 0.00 in0.0 mm
12:07 AM 70.0°F21.1°C 62.1°F16.7°C 76% 6.0 mph NW9.7 kmh NW 6.9 mph11.1 kmh 29.89 in1012.2 mb - 0.00 in0.0 mm 0.00 in0.0 mm
12:02 AM 69.6°F20.9°C 62.1°F16.7°C 77% 4.9 mph SW7.9 kmh SW 2.9 mph4.7 kmh 29.89 in1012.2 mb - 0.00 in0.0 mm 0.00 in0.0 mm